sensor_id;sensor_type;location;lat;lon;timestamp;P1;durP1;ratioP1;P2;durP2;ratioP2
23270;SDS011;11804;51.118;17.058;2023-02-28T00:01:15;43.73;;;21.73;;
23270;SDS011;11804;51.118;17.058;2023-02-28T00:03:43;48.17;;;20.80;;
23270;SDS011;11804;51.118;17.058;2023-02-28T00:06:10;44.47;;;19.63;;
23270;SDS011;11804;51.118;17.058;2023-02-28T00:08:38;38.23;;;20.10;;
23270;SDS011;11804;51.118;17.058;2023-02-28T00:11:07;35.10;;;19.93;;
23270;SDS011;11804;51.118;17.058;2023-02-28T00:13:40;40.07;;;20.43;;
23270;SDS011;11804;51.118;17.058;2023-02-28T00:16:12;41.57;;;22.23;;
23270;SDS011;11804;51.118;17.058;2023-02-28T00:18:41;43.77;;;22.20;;
23270;SDS011;11804;51.118;17.058;2023-02-28T00:21:09;42.40;;;23.13;;
23270;SDS011;11804;51.118;17.058;2023-02-28T00:23:37;42.63;;;21.30;;
23270;SDS011;11804;51.118;17.058;2023-02-28T00:26:05;41.40;;;20.27;;
23270;SDS011;11804;51.118;17.058;2023-02-28T00:28:33;37.23;;;20.70;;
23270;SDS011;11804;51.118;17.058;2023-02-28T00:31:00;36.03;;;19.10;;
23270;SDS011;11804;51.118;17.058;2023-02-28T00:33:28;39.33;;;19.93;;
23270;SDS011;11804;51.118;17.058;2023-02-28T00:36:08;38.37;;;20.67;;
23270;SDS011;11804;51.118;17.058;2023-02-28T00:38:33;38.77;;;19.80;;
23270;SDS011;11804;51.118;17.058;2023-02-28T00:41:00;39.43;;;21.00;;
23270;SDS011;11804;51.118;17.058;2023-02-28T00:43:31;41.57;;;21.63;;
23270;SDS011;11804;51.118;17.058;2023-02-28T00:46:00;44.50;;;22.30;;
23270;SDS011;11804;51.118;17.058;2023-02-28T00:48:28;42.83;;;23.03;;
23270;SDS011;11804;51.118;17.058;2023-02-28T00:50:58;38.73;;;20.90;;
23270;SDS011;11804;51.118;17.058;2023-02-28T00:53:26;41.47;;;20.47;;
23270;SDS011;11804;51.118;17.058;2023-02-28T00:55:55;37.40;;;20.17;;
23270;SDS011;11804;51.118;17.058;2023-02-28T00:58:22;40.20;;;21.10;;
23270;SDS011;11804;51.118;17.058;2023-02-28T01:00:51;33.53;;;19.47;;
23270;SDS011;11804;51.118;17.058;2023-02-28T01:03:20;39.63;;;20.70;;
23270;SDS011;11804;51.118;17.058;2023-02-28T01:05:48;39.27;;;20.93;;
23270;SDS011;11804;51.118;17.058;2023-02-28T01:08:18;40.23;;;20.97;;
23270;SDS011;11804;51.118;17.058;2023-02-28T01:10:46;42.30;;;21.70;;
23270;SDS011;11804;51.118;17.058;2023-02-28T01:13:15;42.17;;;20.90;;
23270;SDS011;11804;51.118;17.058;2023-02-28T01:15:50;35.77;;;19.93;;
23270;SDS011;11804;51.118;17.058;2023-02-28T01:18:13;37.57;;;19.87;;
23270;SDS011;11804;51.118;17.058;2023-02-28T01:20:41;42.53;;;20.83;;
23270;SDS011;11804;51.118;17.058;2023-02-28T01:23:10;34.23;;;19.23;;
23270;SDS011;11804;51.118;17.058;2023-02-28T01:25:38;37.77;;;19.93;;
23270;SDS011;11804;51.118;17.058;2023-02-28T01:28:06;36.47;;;20.03;;
23270;SDS011;11804;51.118;17.058;2023-02-28T01:30:34;44.23;;;21.07;;
23270;SDS011;11804;51.118;17.058;2023-02-28T01:33:01;43.70;;;20.90;;
23270;SDS011;11804;51.118;17.058;2023-02-28T01:35:31;43.97;;;21.43;;
23270;SDS011;11804;51.118;17.058;2023-02-28T01:37:59;39.13;;;20.53;;
23270;SDS011;11804;51.118;17.058;2023-02-28T01:40:27;40.93;;;19.60;;
23270;SDS011;11804;51.118;17.058;2023-02-28T01:42:55;31.80;;;18.40;;
23270;SDS011;11804;51.118;17.058;2023-02-28T01:45:25;36.00;;;19.23;;
23270;SDS011;11804;51.118;17.058;2023-02-28T01:47:56;40.50;;;19.33;;
23270;SDS011;11804;51.118;17.058;2023-02-28T01:50:26;39.63;;;18.70;;
23270;SDS011;11804;51.118;17.058;2023-02-28T01:52:57;33.30;;;17.57;;
23270;SDS011;11804;51.118;17.058;2023-02-28T01:55:29;36.37;;;18.17;;
23270;SDS011;11804;51.118;17.058;2023-02-28T01:57:58;37.47;;;19.13;;
23270;SDS011;11804;51.118;17.058;2023-02-28T02:00:28;34.20;;;17.97;;
23270;SDS011;11804;51.118;17.058;2023-02-28T02:02:59;37.67;;;19.70;;
23270;SDS011;11804;51.118;17.058;2023-02-28T02:05:29;38.17;;;19.57;;
23270;SDS011;11804;51.118;17.058;2023-02-28T02:07:58;35.47;;;17.50;;
23270;SDS011;11804;51.118;17.058;2023-02-28T02:10:34;35.93;;;18.70;;
23270;SDS011;11804;51.118;17.058;2023-02-28T02:16:06;37.80;;;18.00;;
23270;SDS011;11804;51.118;17.058;2023-02-28T02:23:43;38.33;;;19.07;;
23270;SDS011;11804;51.118;17.058;2023-02-28T02:26:31;36.53;;;18.80;;
23270;SDS011;11804;51.118;17.058;2023-02-28T02:31:54;36.40;;;18.30;;
23270;SDS011;11804;51.118;17.058;2023-02-28T02:34:40;37.83;;;19.23;;
23270;SDS011;11804;51.118;17.058;2023-02-28T02:37:24;37.60;;;20.20;;
23270;SDS011;11804;51.118;17.058;2023-02-28T02:40:08;31.43;;;18.27;;
23270;SDS011;11804;51.118;17.058;2023-02-28T02:42:56;38.63;;;18.43;;
23270;SDS011;11804;51.118;17.058;2023-02-28T02:45:40;34.70;;;17.97;;
23270;SDS011;11804;51.118;17.058;2023-02-28T02:48:16;36.17;;;19.00;;
23270;SDS011;11804;51.118;17.058;2023-02-28T02:50:56;42.37;;;19.50;;
23270;SDS011;11804;51.118;17.058;2023-02-28T02:53:22;39.00;;;19.43;;
23270;SDS011;11804;51.118;17.058;2023-02-28T02:55:52;40.20;;;19.77;;
23270;SDS011;11804;51.118;17.058;2023-02-28T02:58:23;34.30;;;19.07;;
23270;SDS011;11804;51.118;17.058;2023-02-28T03:00:52;37.60;;;19.63;;
23270;SDS011;11804;51.118;17.058;2023-02-28T03:03:21;36.13;;;19.87;;
23270;SDS011;11804;51.118;17.058;2023-02-28T03:05:52;38.80;;;20.50;;
23270;SDS011;11804;51.118;17.058;2023-02-28T03:08:20;36.07;;;19.67;;
23270;SDS011;11804;51.118;17.058;2023-02-28T03:10:48;33.70;;;18.53;;
23270;SDS011;11804;51.118;17.058;2023-02-28T03:13:41;36.97;;;18.90;;
23270;SDS011;11804;51.118;17.058;2023-02-28T03:22:13;39.40;;;19.53;;
23270;SDS011;11804;51.118;17.058;2023-02-28T03:24:55;36.03;;;19.47;;
23270;SDS011;11804;51.118;17.058;2023-02-28T03:27:49;39.27;;;19.93;;
23270;SDS011;11804;51.118;17.058;2023-02-28T03:30:05;38.97;;;19.00;;
23270;SDS011;11804;51.118;17.058;2023-02-28T03:32:57;37.03;;;19.60;;
23270;SDS011;11804;51.118;17.058;2023-02-28T03:35:27;33.57;;;17.90;;
23270;SDS011;11804;51.118;17.058;2023-02-28T03:38:07;35.03;;;18.73;;
23270;SDS011;11804;51.118;17.058;2023-02-28T03:40:40;34.70;;;18.37;;
23270;SDS011;11804;51.118;17.058;2023-02-28T03:43:12;36.73;;;19.37;;
23270;SDS011;11804;51.118;17.058;2023-02-28T03:45:40;36.73;;;19.13;;
23270;SDS011;11804;51.118;17.058;2023-02-28T03:48:21;36.57;;;18.53;;
23270;SDS011;11804;51.118;17.058;2023-02-28T03:50:44;35.87;;;19.47;;
23270;SDS011;11804;51.118;17.058;2023-02-28T03:53:15;39.00;;;19.00;;
23270;SDS011;11804;51.118;17.058;2023-02-28T03:55:45;35.57;;;18.40;;
23270;SDS011;11804;51.118;17.058;2023-02-28T03:58:18;40.57;;;20.23;;
23270;SDS011;11804;51.118;17.058;2023-02-28T04:00:57;37.17;;;19.40;;
23270;SDS011;11804;51.118;17.058;2023-02-28T04:03:25;39.27;;;20.13;;
23270;SDS011;11804;51.118;17.058;2023-02-28T04:05:54;37.70;;;19.23;;
23270;SDS011;11804;51.118;17.058;2023-02-28T04:08:23;34.17;;;19.20;;
23270;SDS011;11804;51.118;17.058;2023-02-28T04:10:53;33.60;;;17.97;;
23270;SDS011;11804;51.118;17.058;2023-02-28T04:13:21;36.97;;;19.20;;
23270;SDS011;11804;51.118;17.058;2023-02-28T04:15:49;35.30;;;17.73;;
23270;SDS011;11804;51.118;17.058;2023-02-28T04:18:17;34.70;;;19.13;;
23270;SDS011;11804;51.118;17.058;2023-02-28T04:20:45;37.83;;;19.97;;
23270;SDS011;11804;51.118;17.058;2023-02-28T04:23:13;36.37;;;19.07;;
23270;SDS011;11804;51.118;17.058;2023-02-28T04:25:40;37.43;;;19.27;;
23270;SDS011;11804;51.118;17.058;2023-02-28T04:28:08;36.73;;;19.53;;
23270;SDS011;11804;51.118;17.058;2023-02-28T04:30:36;35.00;;;18.47;;
23270;SDS011;11804;51.118;17.058;2023-02-28T04:33:05;37.17;;;20.20;;
23270;SDS011;11804;51.118;17.058;2023-02-28T04:35:33;43.37;;;20.40;;
23270;SDS011;11804;51.118;17.058;2023-02-28T04:38:00;33.90;;;19.23;;
23270;SDS011;11804;51.118;17.058;2023-02-28T04:40:28;40.73;;;20.50;;
23270;SDS011;11804;51.118;17.058;2023-02-28T04:42:55;38.63;;;20.73;;
23270;SDS011;11804;51.118;17.058;2023-02-28T04:45:23;37.87;;;20.07;;
23270;SDS011;11804;51.118;17.058;2023-02-28T04:47:51;36.63;;;19.03;;
23270;SDS011;11804;51.118;17.058;2023-02-28T04:50:19;35.57;;;19.60;;
23270;SDS011;11804;51.118;17.058;2023-02-28T04:52:47;36.93;;;19.07;;
23270;SDS011;11804;51.118;17.058;2023-02-28T04:55:14;35.23;;;19.83;;
23270;SDS011;11804;51.118;17.058;2023-02-28T04:57:43;33.77;;;19.20;;
23270;SDS011;11804;51.118;17.058;2023-02-28T05:00:11;37.83;;;18.83;;
23270;SDS011;11804;51.118;17.058;2023-02-28T05:02:41;35.70;;;19.50;;
23270;SDS011;11804;51.118;17.058;2023-02-28T05:05:09;39.00;;;19.50;;
23270;SDS011;11804;51.118;17.058;2023-02-28T05:07:37;37.40;;;20.47;;
23270;SDS011;11804;51.118;17.058;2023-02-28T05:10:05;39.93;;;19.97;;
23270;SDS011;11804;51.118;17.058;2023-02-28T05:12:33;36.87;;;20.23;;
23270;SDS011;11804;51.118;17.058;2023-02-28T05:15:01;41.20;;;19.93;;
23270;SDS011;11804;51.118;17.058;2023-02-28T05:17:30;36.93;;;18.23;;
23270;SDS011;11804;51.118;17.058;2023-02-28T05:19:58;36.20;;;18.90;;
23270;SDS011;11804;51.118;17.058;2023-02-28T05:22:25;36.43;;;18.90;;
23270;SDS011;11804;51.118;17.058;2023-02-28T05:24:53;33.00;;;17.60;;
23270;SDS011;11804;51.118;17.058;2023-02-28T05:27:21;41.17;;;19.67;;
23270;SDS011;11804;51.118;17.058;2023-02-28T05:29:48;46.57;;;20.60;;
23270;SDS011;11804;51.118;17.058;2023-02-28T05:32:16;45.83;;;21.43;;
23270;SDS011;11804;51.118;17.058;2023-02-28T05:34:43;41.27;;;20.63;;
23270;SDS011;11804;51.118;17.058;2023-02-28T05:37:12;38.30;;;18.53;;
23270;SDS011;11804;51.118;17.058;2023-02-28T05:39:41;39.03;;;20.07;;
23270;SDS011;11804;51.118;17.058;2023-02-28T05:42:09;34.40;;;18.50;;
23270;SDS011;11804;51.118;17.058;2023-02-28T05:44:37;38.53;;;20.23;;
23270;SDS011;11804;51.118;17.058;2023-02-28T05:47:04;35.07;;;18.43;;
23270;SDS011;11804;51.118;17.058;2023-02-28T05:49:32;29.20;;;15.97;;
23270;SDS011;11804;51.118;17.058;2023-02-28T05:52:00;35.70;;;17.30;;
23270;SDS011;11804;51.118;17.058;2023-02-28T05:54:28;31.90;;;14.57;;
23270;SDS011;11804;51.118;17.058;2023-02-28T05:56:55;28.50;;;15.40;;
23270;SDS011;11804;51.118;17.058;2023-02-28T05:59:23;29.47;;;15.40;;
23270;SDS011;11804;51.118;17.058;2023-02-28T06:01:51;26.73;;;14.83;;
23270;SDS011;11804;51.118;17.058;2023-02-28T06:04:19;28.07;;;14.47;;
23270;SDS011;11804;51.118;17.058;2023-02-28T06:06:47;25.97;;;14.37;;
23270;SDS011;11804;51.118;17.058;2023-02-28T06:09:16;33.10;;;15.83;;
23270;SDS011;11804;51.118;17.058;2023-02-28T06:11:45;26.03;;;15.30;;
23270;SDS011;11804;51.118;17.058;2023-02-28T06:14:16;29.40;;;17.33;;
23270;SDS011;11804;51.118;17.058;2023-02-28T06:16:45;35.13;;;18.20;;
23270;SDS011;11804;51.118;17.058;2023-02-28T06:19:13;33.50;;;18.47;;
23270;SDS011;11804;51.118;17.058;2023-02-28T06:21:42;37.70;;;18.40;;
23270;SDS011;11804;51.118;17.058;2023-02-28T06:24:09;36.00;;;20.03;;
23270;SDS011;11804;51.118;17.058;2023-02-28T06:26:37;39.17;;;20.47;;
23270;SDS011;11804;51.118;17.058;2023-02-28T06:29:05;39.10;;;20.33;;
23270;SDS011;11804;51.118;17.058;2023-02-28T06:31:33;36.67;;;19.70;;
23270;SDS011;11804;51.118;17.058;2023-02-28T06:34:01;36.63;;;19.60;;
23270;SDS011;11804;51.118;17.058;2023-02-28T06:36:28;35.57;;;19.73;;
23270;SDS011;11804;51.118;17.058;2023-02-28T06:38:56;35.40;;;19.77;;
23270;SDS011;11804;51.118;17.058;2023-02-28T06:41:25;42.30;;;20.73;;
23270;SDS011;11804;51.118;17.058;2023-02-28T06:43:53;35.30;;;19.13;;
23270;SDS011;11804;51.118;17.058;2023-02-28T06:46:21;27.80;;;15.70;;
23270;SDS011;11804;51.118;17.058;2023-02-28T06:48:49;28.03;;;14.30;;
23270;SDS011;11804;51.118;17.058;2023-02-28T06:51:17;33.40;;;17.23;;
23270;SDS011;11804;51.118;17.058;2023-02-28T06:53:48;32.07;;;16.77;;
23270;SDS011;11804;51.118;17.058;2023-02-28T06:56:16;34.40;;;16.90;;
23270;SDS011;11804;51.118;17.058;2023-02-28T06:58:46;30.47;;;16.47;;
23270;SDS011;11804;51.118;17.058;2023-02-28T07:01:15;35.53;;;19.50;;
23270;SDS011;11804;51.118;17.058;2023-02-28T07:03:45;24.63;;;15.33;;
23270;SDS011;11804;51.118;17.058;2023-02-28T07:06:15;27.47;;;15.33;;
23270;SDS011;11804;51.118;17.058;2023-02-28T07:08:44;25.23;;;13.37;;
23270;SDS011;11804;51.118;17.058;2023-02-28T07:11:11;23.73;;;12.90;;
23270;SDS011;11804;51.118;17.058;2023-02-28T07:13:39;24.83;;;13.10;;
23270;SDS011;11804;51.118;17.058;2023-02-28T07:16:08;28.97;;;13.73;;
23270;SDS011;11804;51.118;17.058;2023-02-28T07:18:37;25.53;;;11.83;;
23270;SDS011;11804;51.118;17.058;2023-02-28T07:21:06;24.57;;;12.53;;
23270;SDS011;11804;51.118;17.058;2023-02-28T07:23:35;22.00;;;11.80;;
23270;SDS011;11804;51.118;17.058;2023-02-28T07:26:06;27.40;;;11.53;;
23270;SDS011;11804;51.118;17.058;2023-02-28T07:28:36;24.17;;;10.20;;
23270;SDS011;11804;51.118;17.058;2023-02-28T07:31:07;20.43;;;13.00;;
23270;SDS011;11804;51.118;17.058;2023-02-28T07:33:36;18.40;;;10.70;;
23270;SDS011;11804;51.118;17.058;2023-02-28T07:36:05;15.90;;;9.37;;
23270;SDS011;11804;51.118;17.058;2023-02-28T07:38:36;19.77;;;11.97;;
23270;SDS011;11804;51.118;17.058;2023-02-28T07:41:04;18.53;;;11.33;;
23270;SDS011;11804;51.118;17.058;2023-02-28T07:43:32;19.70;;;10.63;;
23270;SDS011;11804;51.118;17.058;2023-02-28T07:46:09;19.73;;;9.13;;
23270;SDS011;11804;51.118;17.058;2023-02-28T07:48:41;22.23;;;10.13;;
23270;SDS011;11804;51.118;17.058;2023-02-28T07:51:10;18.10;;;9.73;;
23270;SDS011;11804;51.118;17.058;2023-02-28T07:53:38;14.93;;;9.80;;
23270;SDS011;11804;51.118;17.058;2023-02-28T07:56:06;17.63;;;9.87;;
23270;SDS011;11804;51.118;17.058;2023-02-28T07:58:34;20.80;;;10.47;;
23270;SDS011;11804;51.118;17.058;2023-02-28T08:01:10;18.03;;;9.93;;
23270;SDS011;11804;51.118;17.058;2023-02-28T08:03:34;17.17;;;9.80;;
23270;SDS011;11804;51.118;17.058;2023-02-28T08:06:03;20.23;;;9.83;;
23270;SDS011;11804;51.118;17.058;2023-02-28T08:08:32;20.27;;;11.17;;
23270;SDS011;11804;51.118;17.058;2023-02-28T08:11:00;20.00;;;12.17;;
23270;SDS011;11804;51.118;17.058;2023-02-28T08:13:29;22.00;;;9.30;;
23270;SDS011;11804;51.118;17.058;2023-02-28T08:15:57;22.07;;;10.60;;
23270;SDS011;11804;51.118;17.058;2023-02-28T08:18:24;15.37;;;8.60;;
23270;SDS011;11804;51.118;17.058;2023-02-28T08:20:52;13.47;;;8.27;;
23270;SDS011;11804;51.118;17.058;2023-02-28T08:23:20;18.33;;;9.17;;
23270;SDS011;11804;51.118;17.058;2023-02-28T08:25:54;17.83;;;9.03;;
23270;SDS011;11804;51.118;17.058;2023-02-28T08:28:23;16.60;;;10.13;;
23270;SDS011;11804;51.118;17.058;2023-02-28T08:30:50;16.50;;;10.27;;
23270;SDS011;11804;51.118;17.058;2023-02-28T08:33:18;14.63;;;9.07;;
23270;SDS011;11804;51.118;17.058;2023-02-28T08:35:46;24.30;;;14.37;;
23270;SDS011;11804;51.118;17.058;2023-02-28T08:38:13;28.10;;;9.47;;
23270;SDS011;11804;51.118;17.058;2023-02-28T08:40:41;10.73;;;7.50;;
23270;SDS011;11804;51.118;17.058;2023-02-28T08:43:08;15.87;;;7.40;;
23270;SDS011;11804;51.118;17.058;2023-02-28T08:45:36;11.90;;;8.30;;
23270;SDS011;11804;51.118;17.058;2023-02-28T08:48:04;13.97;;;8.97;;
23270;SDS011;11804;51.118;17.058;2023-02-28T08:50:31;11.70;;;7.47;;
23270;SDS011;11804;51.118;17.058;2023-02-28T08:52:59;15.78;;;8.90;;
23270;SDS011;11804;51.118;17.058;2023-02-28T08:55:26;16.57;;;9.10;;
23270;SDS011;11804;51.118;17.058;2023-02-28T08:57:54;12.63;;;8.40;;
23270;SDS011;11804;51.118;17.058;2023-02-28T09:00:22;9.45;;;6.95;;
23270;SDS011;11804;51.118;17.058;2023-02-28T09:02:50;13.73;;;7.60;;
23270;SDS011;11804;51.118;17.058;2023-02-28T09:05:18;15.27;;;7.10;;
23270;SDS011;11804;51.118;17.058;2023-02-28T09:07:45;11.93;;;6.73;;
23270;SDS011;11804;51.118;17.058;2023-02-28T09:10:13;8.07;;;5.93;;
23270;SDS011;11804;51.118;17.058;2023-02-28T09:12:41;15.53;;;6.07;;
23270;SDS011;11804;51.118;17.058;2023-02-28T09:15:10;16.93;;;7.20;;
23270;SDS011;11804;51.118;17.058;2023-02-28T09:17:38;9.67;;;6.50;;
23270;SDS011;11804;51.118;17.058;2023-02-28T09:20:06;10.20;;;6.67;;
23270;SDS011;11804;51.118;17.058;2023-02-28T09:22:34;9.30;;;7.03;;
23270;SDS011;11804;51.118;17.058;2023-02-28T09:25:02;22.50;;;7.40;;
23270;SDS011;11804;51.118;17.058;2023-02-28T09:27:30;15.30;;;7.37;;
23270;SDS011;11804;51.118;17.058;2023-02-28T09:29:57;15.80;;;7.60;;
23270;SDS011;11804;51.118;17.058;2023-02-28T09:32:25;15.80;;;7.87;;
23270;SDS011;11804;51.118;17.058;2023-02-28T09:34:53;10.73;;;7.37;;
23270;SDS011;11804;51.118;17.058;2023-02-28T09:37:20;9.67;;;7.40;;
23270;SDS011;11804;51.118;17.058;2023-02-28T09:39:49;11.60;;;7.37;;
23270;SDS011;11804;51.118;17.058;2023-02-28T09:42:28;10.57;;;7.30;;
23270;SDS011;11804;51.118;17.058;2023-02-28T09:44:56;11.37;;;7.37;;
23270;SDS011;11804;51.118;17.058;2023-02-28T09:47:32;11.00;;;7.77;;
23270;SDS011;11804;51.118;17.058;2023-02-28T09:50:00;42.53;;;23.57;;
23270;SDS011;11804;51.118;17.058;2023-02-28T09:52:30;15.00;;;9.27;;
23270;SDS011;11804;51.118;17.058;2023-02-28T09:55:20;14.67;;;9.23;;
23270;SDS011;11804;51.118;17.058;2023-02-28T09:57:58;14.17;;;9.30;;
23270;SDS011;11804;51.118;17.058;2023-02-28T10:00:33;9.05;;;6.87;;
23270;SDS011;11804;51.118;17.058;2023-02-28T10:05:43;22.37;;;8.65;;
23270;SDS011;11804;51.118;17.058;2023-02-28T10:08:16;10.75;;;6.53;;
23270;SDS011;11804;51.118;17.058;2023-02-28T10:10:57;10.05;;;6.87;;
23270;SDS011;11804;51.118;17.058;2023-02-28T10:13:31;11.57;;;8.60;;
23270;SDS011;11804;51.118;17.058;2023-02-28T10:16:10;14.27;;;7.97;;
23270;SDS011;11804;51.118;17.058;2023-02-28T10:18:38;10.60;;;6.17;;
23270;SDS011;11804;51.118;17.058;2023-02-28T10:21:21;10.30;;;7.23;;
23270;SDS011;11804;51.118;17.058;2023-02-28T10:23:49;8.90;;;5.87;;
23270;SDS011;11804;51.118;17.058;2023-02-28T10:26:20;9.73;;;6.00;;
23270;SDS011;11804;51.118;17.058;2023-02-28T10:28:49;12.63;;;6.67;;
23270;SDS011;11804;51.118;17.058;2023-02-28T10:31:19;10.07;;;7.10;;
23270;SDS011;11804;51.118;17.058;2023-02-28T10:33:47;8.57;;;6.90;;
23270;SDS011;11804;51.118;17.058;2023-02-28T10:36:16;11.13;;;7.37;;
23270;SDS011;11804;51.118;17.058;2023-02-28T10:38:46;13.87;;;7.70;;
23270;SDS011;11804;51.118;17.058;2023-02-28T10:41:16;28.27;;;9.30;;
23270;SDS011;11804;51.118;17.058;2023-02-28T10:43:45;146.77;;;71.75;;
23270;SDS011;11804;51.118;17.058;2023-02-28T10:46:14;20.90;;;12.20;;
23270;SDS011;11804;51.118;17.058;2023-02-28T10:48:45;13.93;;;9.77;;
23270;SDS011;11804;51.118;17.058;2023-02-28T10:51:18;16.17;;;10.07;;
23270;SDS011;11804;51.118;17.058;2023-02-28T10:53:49;19.27;;;9.33;;
23270;SDS011;11804;51.118;17.058;2023-02-28T10:56:20;12.07;;;8.07;;
23270;SDS011;11804;51.118;17.058;2023-02-28T11:01:35;13.60;;;8.73;;
23270;SDS011;11804;51.118;17.058;2023-02-28T11:06:58;17.37;;;8.67;;
23270;SDS011;11804;51.118;17.058;2023-02-28T11:09:34;16.00;;;8.57;;
23270;SDS011;11804;51.118;17.058;2023-02-28T11:12:07;12.00;;;8.13;;
23270;SDS011;11804;51.118;17.058;2023-02-28T11:14:40;13.63;;;7.90;;
23270;SDS011;11804;51.118;17.058;2023-02-28T11:17:41;16.07;;;11.10;;
23270;SDS011;11804;51.118;17.058;2023-02-28T11:19:51;12.90;;;8.20;;
23270;SDS011;11804;51.118;17.058;2023-02-28T11:22:22;12.37;;;9.20;;
23270;SDS011;11804;51.118;17.058;2023-02-28T11:24:55;58.80;;;29.00;;
23270;SDS011;11804;51.118;17.058;2023-02-28T11:30:01;39.77;;;20.97;;
23270;SDS011;11804;51.118;17.058;2023-02-28T11:32:30;16.77;;;8.07;;
23270;SDS011;11804;51.118;17.058;2023-02-28T11:37:38;17.73;;;8.80;;
23270;SDS011;11804;51.118;17.058;2023-02-28T11:40:15;17.90;;;9.30;;
23270;SDS011;11804;51.118;17.058;2023-02-28T11:45:43;13.63;;;7.97;;
23270;SDS011;11804;51.118;17.058;2023-02-28T11:48:22;13.87;;;7.63;;
23270;SDS011;11804;51.118;17.058;2023-02-28T11:51:14;14.07;;;8.03;;
23270;SDS011;11804;51.118;17.058;2023-02-28T11:53:50;19.93;;;8.90;;
23270;SDS011;11804;51.118;17.058;2023-02-28T11:56:22;14.50;;;9.13;;
23270;SDS011;11804;51.118;17.058;2023-02-28T12:06:48;17.67;;;7.80;;
23270;SDS011;11804;51.118;17.058;2023-02-28T12:09:28;17.43;;;8.33;;
23270;SDS011;11804;51.118;17.058;2023-02-28T12:12:22;13.27;;;7.63;;
23270;SDS011;11804;51.118;17.058;2023-02-28T12:18:02;13.93;;;8.13;;
23270;SDS011;11804;51.118;17.058;2023-02-28T12:26:18;19.73;;;10.07;;
23270;SDS011;11804;51.118;17.058;2023-02-28T12:28:53;17.33;;;9.47;;
23270;SDS011;11804;51.118;17.058;2023-02-28T12:31:28;13.90;;;8.60;;
23270;SDS011;11804;51.118;17.058;2023-02-28T12:33:59;21.87;;;10.17;;
23270;SDS011;11804;51.118;17.058;2023-02-28T12:36:27;18.27;;;10.17;;
23270;SDS011;11804;51.118;17.058;2023-02-28T12:38:56;19.00;;;9.90;;
23270;SDS011;11804;51.118;17.058;2023-02-28T12:44:19;22.23;;;10.17;;
23270;SDS011;11804;51.118;17.058;2023-02-28T12:46:55;20.00;;;11.37;;
23270;SDS011;11804;51.118;17.058;2023-02-28T12:51:57;17.93;;;9.87;;
23270;SDS011;11804;51.118;17.058;2023-02-28T12:54:38;17.83;;;10.07;;
23270;SDS011;11804;51.118;17.058;2023-02-28T12:57:08;17.87;;;10.40;;
23270;SDS011;11804;51.118;17.058;2023-02-28T13:00:04;20.57;;;10.00;;
23270;SDS011;11804;51.118;17.058;2023-02-28T13:02:43;18.13;;;10.10;;
23270;SDS011;11804;51.118;17.058;2023-02-28T13:07:49;18.27;;;10.30;;
23270;SDS011;11804;51.118;17.058;2023-02-28T13:10:45;19.33;;;10.83;;
23270;SDS011;11804;51.118;17.058;2023-02-28T13:13:29;17.10;;;10.00;;
23270;SDS011;11804;51.118;17.058;2023-02-28T13:18:32;16.10;;;10.00;;
23270;SDS011;11804;51.118;17.058;2023-02-28T13:21:09;15.60;;;9.67;;
23270;SDS011;11804;51.118;17.058;2023-02-28T13:23:58;18.73;;;9.80;;
23270;SDS011;11804;51.118;17.058;2023-02-28T13:34:39;17.47;;;9.87;;
23270;SDS011;11804;51.118;17.058;2023-02-28T13:39:57;18.40;;;10.10;;
23270;SDS011;11804;51.118;17.058;2023-02-28T13:42:33;21.13;;;10.27;;
23270;SDS011;11804;51.118;17.058;2023-02-28T13:47:35;18.40;;;10.53;;
23270;SDS011;11804;51.118;17.058;2023-02-28T13:58:41;18.13;;;10.10;;
23270;SDS011;11804;51.118;17.058;2023-02-28T14:01:14;18.33;;;10.63;;
23270;SDS011;11804;51.118;17.058;2023-02-28T14:06:54;21.77;;;11.83;;
23270;SDS011;11804;51.118;17.058;2023-02-28T14:09:29;19.90;;;11.10;;
23270;SDS011;11804;51.118;17.058;2023-02-28T14:15:30;21.40;;;10.23;;
23270;SDS011;11804;51.118;17.058;2023-02-28T14:18:17;24.30;;;11.33;;
23270;SDS011;11804;51.118;17.058;2023-02-28T14:20:48;21.30;;;11.07;;
23270;SDS011;11804;51.118;17.058;2023-02-28T14:29:30;19.77;;;10.70;;
23270;SDS011;11804;51.118;17.058;2023-02-28T14:32:01;21.50;;;11.03;;
23270;SDS011;11804;51.118;17.058;2023-02-28T14:37:32;19.70;;;10.93;;
23270;SDS011;11804;51.118;17.058;2023-02-28T14:39:50;17.90;;;11.20;;
23270;SDS011;11804;51.118;17.058;2023-02-28T14:42:46;20.37;;;11.97;;
23270;SDS011;11804;51.118;17.058;2023-02-28T14:44:56;20.20;;;11.40;;
23270;SDS011;11804;51.118;17.058;2023-02-28T14:47:26;19.13;;;11.03;;
23270;SDS011;11804;51.118;17.058;2023-02-28T14:49:54;20.00;;;12.03;;
23270;SDS011;11804;51.118;17.058;2023-02-28T14:52:24;23.27;;;12.20;;
23270;SDS011;11804;51.118;17.058;2023-02-28T14:54:58;22.27;;;12.03;;
23270;SDS011;11804;51.118;17.058;2023-02-28T14:57:28;18.20;;;11.27;;
23270;SDS011;11804;51.118;17.058;2023-02-28T14:59:59;25.67;;;12.13;;
23270;SDS011;11804;51.118;17.058;2023-02-28T15:02:30;18.17;;;10.53;;
23270;SDS011;11804;51.118;17.058;2023-02-28T15:05:01;27.20;;;12.17;;
23270;SDS011;11804;51.118;17.058;2023-02-28T15:07:31;20.97;;;10.70;;
23270;SDS011;11804;51.118;17.058;2023-02-28T15:12:53;21.87;;;11.10;;
23270;SDS011;11804;51.118;17.058;2023-02-28T15:15:39;18.77;;;10.60;;
23270;SDS011;11804;51.118;17.058;2023-02-28T15:18:02;21.90;;;10.13;;
23270;SDS011;11804;51.118;17.058;2023-02-28T15:20:32;17.97;;;11.00;;
23270;SDS011;11804;51.118;17.058;2023-02-28T15:23:01;20.40;;;10.43;;
23270;SDS011;11804;51.118;17.058;2023-02-28T15:25:29;26.20;;;11.33;;
23270;SDS011;11804;51.118;17.058;2023-02-28T15:27:57;17.37;;;9.83;;
23270;SDS011;11804;51.118;17.058;2023-02-28T15:30:26;24.40;;;10.57;;
23270;SDS011;11804;51.118;17.058;2023-02-28T15:35:41;16.13;;;9.00;;
23270;SDS011;11804;51.118;17.058;2023-02-28T15:40:55;15.70;;;9.13;;
23270;SDS011;11804;51.118;17.058;2023-02-28T15:43:30;17.63;;;8.97;;
23270;SDS011;11804;51.118;17.058;2023-02-28T15:45:59;23.87;;;11.17;;
23270;SDS011;11804;51.118;17.058;2023-02-28T15:48:36;20.47;;;8.90;;
23270;SDS011;11804;51.118;17.058;2023-02-28T15:51:12;18.97;;;8.27;;
23270;SDS011;11804;51.118;17.058;2023-02-28T15:53:47;15.53;;;8.67;;
23270;SDS011;11804;51.118;17.058;2023-02-28T15:56:23;16.60;;;8.93;;
23270;SDS011;11804;51.118;17.058;2023-02-28T15:58:59;14.63;;;8.57;;
23270;SDS011;11804;51.118;17.058;2023-02-28T16:01:29;19.80;;;7.67;;
23270;SDS011;11804;51.118;17.058;2023-02-28T16:04:01;16.63;;;8.20;;
23270;SDS011;11804;51.118;17.058;2023-02-28T16:06:42;17.03;;;8.33;;
23270;SDS011;11804;51.118;17.058;2023-02-28T16:09:14;15.53;;;9.17;;
23270;SDS011;11804;51.118;17.058;2023-02-28T16:11:47;19.50;;;9.33;;
23270;SDS011;11804;51.118;17.058;2023-02-28T16:14:22;14.60;;;7.90;;
23270;SDS011;11804;51.118;17.058;2023-02-28T16:16:49;17.03;;;8.93;;
23270;SDS011;11804;51.118;17.058;2023-02-28T16:19:19;18.43;;;9.50;;
23270;SDS011;11804;51.118;17.058;2023-02-28T16:21:47;25.30;;;12.07;;